Accueil
METAR-TAF:

METAR-TAF

Aéroports :

Aéroport international Arroyo Barril

Santa Bárbara de Samaná, République dominicaine

latitude: 19-11-55N, longitude: 69-25-47W, altitude: 18 m

Observation

Le bulletin a été fait il y a 5 heures et 38 minutes, à 21:00 UTC
Vent 4 kt de sud
Température 30°C
Humidité 84%
Pression 1013 hPa
Visibilité 10 km ou plus
Nuages épars à une hauteur de 1800 ft
Nuages fragmentés à une hauteur de 30000 ft

METAR: MDAB 222100Z 18004KT 9999 SCT018 BKN300 30/27 Q1013

Heure: 22:38 (02:38 UTC)


TAF: absent

Observations et prévisions météorologiques de plus de 4000 aéroports (messages METAR et TAF).

Les stations disponibles sont représentées par des disques jaunes et rouges sur la carte.

Passer la souris dessus pour voir le nom de la station.

Cliquer dessus pour voir les observations et prévisions météorologiques.

Pour changer de carte: cliquez sur les boutons verts avec une croix noire pour zoomer, sur le bouton vert avec un tiret pour effectuer un zoom arrière, ou sur les flèches vertes pour les cartes adjacentes.


METAR-TAF: